Terminal Aerodrome Forecast
Issued by NWS Central Illinois

Home | Current Version | Previous Version | Text Only | Print | Product List | Glossary On
Versions: 1 2 3 4 5 6 7 8 9 10 11 12 13 14 15 16 17 18 19 20 21
134
FTUS43 KILX 251120
TAFSPI
TAF
KSPI 251120Z 2512/2612 30018G28KT P6SM OVC025
     FM251400 30018G25KT P6SM SCT050
     FM252300 30010KT P6SM SCT250
     FM260700 21005KT P6SM FEW130=

USA.gov is the U.S. government's official web portal to all federal, state and local government web resources and services.